sensor_id;sensor_type;location;lat;lon;timestamp;P1;durP1;ratioP1;P2;durP2;ratioP2
10246;SDS011;5168;47.854;7.944;2022-08-30T00:00:09;5.63;;;4.70;;
10246;SDS011;5168;47.854;7.944;2022-08-30T00:02:58;9.47;;;5.00;;
10246;SDS011;5168;47.854;7.944;2022-08-30T00:05:25;7.23;;;4.53;;
10246;SDS011;5168;47.854;7.944;2022-08-30T00:07:52;5.80;;;5.10;;
10246;SDS011;5168;47.854;7.944;2022-08-30T00:10:18;5.57;;;5.07;;
10246;SDS011;5168;47.854;7.944;2022-08-30T00:12:44;4.80;;;4.40;;
10246;SDS011;5168;47.854;7.944;2022-08-30T00:15:10;5.13;;;4.63;;
10246;SDS011;5168;47.854;7.944;2022-08-30T00:17:37;5.53;;;5.03;;
10246;SDS011;5168;47.854;7.944;2022-08-30T00:20:04;5.10;;;4.60;;
10246;SDS011;5168;47.854;7.944;2022-08-30T00:22:31;4.77;;;4.37;;
10246;SDS011;5168;47.854;7.944;2022-08-30T00:24:58;5.27;;;4.67;;
10246;SDS011;5168;47.854;7.944;2022-08-30T00:27:27;5.30;;;4.80;;
10246;SDS011;5168;47.854;7.944;2022-08-30T00:29:53;5.33;;;4.83;;
10246;SDS011;5168;47.854;7.944;2022-08-30T00:32:19;8.53;;;4.87;;
10246;SDS011;5168;47.854;7.944;2022-08-30T00:34:48;4.93;;;4.53;;
10246;SDS011;5168;47.854;7.944;2022-08-30T00:37:18;5.63;;;5.03;;
10246;SDS011;5168;47.854;7.944;2022-08-30T00:39:44;5.10;;;4.23;;
10246;SDS011;5168;47.854;7.944;2022-08-30T00:42:10;5.40;;;4.90;;
10246;SDS011;5168;47.854;7.944;2022-08-30T00:44:38;5.27;;;4.47;;
10246;SDS011;5168;47.854;7.944;2022-08-30T00:47:04;5.37;;;4.90;;
10246;SDS011;5168;47.854;7.944;2022-08-30T00:49:30;4.80;;;4.40;;
10246;SDS011;5168;47.854;7.944;2022-08-30T00:51:57;5.03;;;4.53;;
10246;SDS011;5168;47.854;7.944;2022-08-30T00:54:24;6.60;;;5.10;;
10246;SDS011;5168;47.854;7.944;2022-08-30T00:56:50;6.87;;;4.70;;
10246;SDS011;5168;47.854;7.944;2022-08-30T00:59:16;5.40;;;4.90;;
10246;SDS011;5168;47.854;7.944;2022-08-30T01:01:43;5.33;;;4.83;;
10246;SDS011;5168;47.854;7.944;2022-08-30T01:04:10;4.83;;;4.40;;
10246;SDS011;5168;47.854;7.944;2022-08-30T01:06:37;5.97;;;5.37;;
10246;SDS011;5168;47.854;7.944;2022-08-30T01:09:04;5.70;;;5.03;;
10246;SDS011;5168;47.854;7.944;2022-08-30T01:11:31;4.90;;;4.50;;
10246;SDS011;5168;47.854;7.944;2022-08-30T01:13:58;5.30;;;4.80;;
10246;SDS011;5168;47.854;7.944;2022-08-30T01:16:24;5.77;;;4.97;;
10246;SDS011;5168;47.854;7.944;2022-08-30T01:18:51;5.67;;;5.03;;
10246;SDS011;5168;47.854;7.944;2022-08-30T01:21:26;5.40;;;4.90;;
10246;SDS011;5168;47.854;7.944;2022-08-30T01:24:04;4.77;;;4.37;;
10246;SDS011;5168;47.854;7.944;2022-08-30T01:26:31;6.13;;;4.50;;
10246;SDS011;5168;47.854;7.944;2022-08-30T01:28:59;5.37;;;4.83;;
10246;SDS011;5168;47.854;7.944;2022-08-30T01:31:28;6.57;;;4.90;;
10246;SDS011;5168;47.854;7.944;2022-08-30T01:33:54;4.70;;;4.30;;
10246;SDS011;5168;47.854;7.944;2022-08-30T01:36:20;5.07;;;4.57;;
10246;SDS011;5168;47.854;7.944;2022-08-30T01:38:54;4.63;;;4.23;;
10246;SDS011;5168;47.854;7.944;2022-08-30T01:41:40;5.77;;;4.47;;
10246;SDS011;5168;47.854;7.944;2022-08-30T01:44:06;5.17;;;4.67;;
10246;SDS011;5168;47.854;7.944;2022-08-30T01:46:35;5.17;;;4.67;;
10246;SDS011;5168;47.854;7.944;2022-08-30T01:49:05;5.87;;;4.53;;
10246;SDS011;5168;47.854;7.944;2022-08-30T01:51:33;5.00;;;4.50;;
10246;SDS011;5168;47.854;7.944;2022-08-30T01:53:59;5.50;;;5.00;;
10246;SDS011;5168;47.854;7.944;2022-08-30T01:56:26;5.00;;;4.47;;
10246;SDS011;5168;47.854;7.944;2022-08-30T01:58:52;4.57;;;4.17;;
10246;SDS011;5168;47.854;7.944;2022-08-30T02:01:20;4.60;;;4.20;;
10246;SDS011;5168;47.854;7.944;2022-08-30T02:03:49;4.63;;;4.23;;
10246;SDS011;5168;47.854;7.944;2022-08-30T02:06:17;6.57;;;4.23;;
10246;SDS011;5168;47.854;7.944;2022-08-30T02:08:44;4.20;;;3.90;;
10246;SDS011;5168;47.854;7.944;2022-08-30T02:11:10;5.07;;;4.30;;
10246;SDS011;5168;47.854;7.944;2022-08-30T02:13:37;4.70;;;4.30;;
10246;SDS011;5168;47.854;7.944;2022-08-30T02:16:05;4.90;;;4.30;;
10246;SDS011;5168;47.854;7.944;2022-08-30T02:18:33;4.20;;;3.87;;
10246;SDS011;5168;47.854;7.944;2022-08-30T02:20:59;4.33;;;3.93;;
10246;SDS011;5168;47.854;7.944;2022-08-30T02:23:25;4.50;;;4.10;;
10246;SDS011;5168;47.854;7.944;2022-08-30T02:25:51;4.50;;;4.10;;
10246;SDS011;5168;47.854;7.944;2022-08-30T02:28:18;4.73;;;3.97;;
10246;SDS011;5168;47.854;7.944;2022-08-30T02:30:44;4.90;;;4.13;;
10246;SDS011;5168;47.854;7.944;2022-08-30T02:33:10;4.30;;;3.90;;
10246;SDS011;5168;47.854;7.944;2022-08-30T02:35:36;4.13;;;3.77;;
10246;SDS011;5168;47.854;7.944;2022-08-30T02:38:02;4.33;;;3.93;;
10246;SDS011;5168;47.854;7.944;2022-08-30T02:40:28;5.20;;;4.00;;
10246;SDS011;5168;47.854;7.944;2022-08-30T02:42:54;4.77;;;4.27;;
10246;SDS011;5168;47.854;7.944;2022-08-30T02:45:21;5.97;;;3.90;;
10246;SDS011;5168;47.854;7.944;2022-08-30T02:47:47;4.50;;;4.10;;
10246;SDS011;5168;47.854;7.944;2022-08-30T02:50:13;4.10;;;3.70;;
10246;SDS011;5168;47.854;7.944;2022-08-30T02:52:39;4.60;;;3.87;;
10246;SDS011;5168;47.854;7.944;2022-08-30T02:55:05;4.07;;;3.67;;
10246;SDS011;5168;47.854;7.944;2022-08-30T02:57:32;4.17;;;3.77;;
10246;SDS011;5168;47.854;7.944;2022-08-30T02:59:58;4.40;;;4.00;;
10246;SDS011;5168;47.854;7.944;2022-08-30T03:02:24;4.23;;;3.83;;
10246;SDS011;5168;47.854;7.944;2022-08-30T03:04:50;4.53;;;4.13;;
10246;SDS011;5168;47.854;7.944;2022-08-30T03:07:16;3.63;;;3.33;;
10246;SDS011;5168;47.854;7.944;2022-08-30T03:09:42;3.23;;;2.93;;
10246;SDS011;5168;47.854;7.944;2022-08-30T03:12:08;3.80;;;3.50;;
10246;SDS011;5168;47.854;7.944;2022-08-30T03:14:35;4.73;;;4.10;;
10246;SDS011;5168;47.854;7.944;2022-08-30T03:17:03;5.97;;;3.90;;
10246;SDS011;5168;47.854;7.944;2022-08-30T03:19:30;3.90;;;3.50;;
10246;SDS011;5168;47.854;7.944;2022-08-30T03:21:56;4.40;;;4.00;;
10246;SDS011;5168;47.854;7.944;2022-08-30T03:24:21;4.03;;;3.73;;
10246;SDS011;5168;47.854;7.944;2022-08-30T03:26:47;3.87;;;3.53;;
10246;SDS011;5168;47.854;7.944;2022-08-30T03:29:12;4.50;;;3.47;;
10246;SDS011;5168;47.854;7.944;2022-08-30T03:31:38;4.40;;;4.00;;
10246;SDS011;5168;47.854;7.944;2022-08-30T03:34:03;4.43;;;3.57;;
10246;SDS011;5168;47.854;7.944;2022-08-30T03:36:30;4.40;;;4.00;;
10246;SDS011;5168;47.854;7.944;2022-08-30T03:38:56;5.57;;;3.67;;
10246;SDS011;5168;47.854;7.944;2022-08-30T03:41:22;3.53;;;3.23;;
10246;SDS011;5168;47.854;7.944;2022-08-30T03:43:48;3.73;;;3.43;;
10246;SDS011;5168;47.854;7.944;2022-08-30T03:46:14;3.07;;;2.87;;
10246;SDS011;5168;47.854;7.944;2022-08-30T03:48:40;4.53;;;3.30;;
10246;SDS011;5168;47.854;7.944;2022-08-30T03:51:06;4.10;;;3.70;;
10246;SDS011;5168;47.854;7.944;2022-08-30T03:53:32;3.80;;;3.47;;
10246;SDS011;5168;47.854;7.944;2022-08-30T03:55:58;4.30;;;3.90;;
10246;SDS011;5168;47.854;7.944;2022-08-30T03:58:24;3.97;;;3.50;;
10246;SDS011;5168;47.854;7.944;2022-08-30T04:00:50;4.13;;;3.80;;
10246;SDS011;5168;47.854;7.944;2022-08-30T04:03:15;3.63;;;3.33;;
10246;SDS011;5168;47.854;7.944;2022-08-30T04:05:42;3.70;;;3.40;;
10246;SDS011;5168;47.854;7.944;2022-08-30T04:08:09;4.20;;;3.80;;
10246;SDS011;5168;47.854;7.944;2022-08-30T04:10:35;3.67;;;3.37;;
10246;SDS011;5168;47.854;7.944;2022-08-30T04:13:01;5.03;;;3.60;;
10246;SDS011;5168;47.854;7.944;2022-08-30T04:15:26;4.87;;;3.80;;
10246;SDS011;5168;47.854;7.944;2022-08-30T04:17:52;4.10;;;3.70;;
10246;SDS011;5168;47.854;7.944;2022-08-30T04:20:19;3.83;;;3.50;;
10246;SDS011;5168;47.854;7.944;2022-08-30T04:22:44;4.20;;;3.80;;
10246;SDS011;5168;47.854;7.944;2022-08-30T04:25:11;4.17;;;3.70;;
10246;SDS011;5168;47.854;7.944;2022-08-30T04:27:37;3.53;;;3.23;;
10246;SDS011;5168;47.854;7.944;2022-08-30T04:30:03;3.27;;;3.03;;
10246;SDS011;5168;47.854;7.944;2022-08-30T04:32:29;3.77;;;3.47;;
10246;SDS011;5168;47.854;7.944;2022-08-30T04:34:56;3.77;;;3.47;;
10246;SDS011;5168;47.854;7.944;2022-08-30T04:37:23;3.70;;;3.33;;
10246;SDS011;5168;47.854;7.944;2022-08-30T04:39:49;3.80;;;3.50;;
10246;SDS011;5168;47.854;7.944;2022-08-30T04:42:15;4.00;;;3.60;;
10246;SDS011;5168;47.854;7.944;2022-08-30T04:44:40;4.13;;;3.40;;
10246;SDS011;5168;47.854;7.944;2022-08-30T04:47:06;3.50;;;3.20;;
10246;SDS011;5168;47.854;7.944;2022-08-30T04:49:33;3.53;;;3.23;;
10246;SDS011;5168;47.854;7.944;2022-08-30T04:51:59;6.23;;;3.70;;
10246;SDS011;5168;47.854;7.944;2022-08-30T04:54:25;4.03;;;3.30;;
10246;SDS011;5168;47.854;7.944;2022-08-30T04:56:51;4.43;;;3.77;;
10246;SDS011;5168;47.854;7.944;2022-08-30T04:59:16;3.67;;;3.20;;
10246;SDS011;5168;47.854;7.944;2022-08-30T05:01:42;4.07;;;3.57;;
10246;SDS011;5168;47.854;7.944;2022-08-30T05:04:07;4.43;;;3.60;;
10246;SDS011;5168;47.854;7.944;2022-08-30T05:06:33;3.50;;;3.20;;
10246;SDS011;5168;47.854;7.944;2022-08-30T05:08:59;3.80;;;3.50;;
10246;SDS011;5168;47.854;7.944;2022-08-30T05:11:25;3.40;;;3.10;;
10246;SDS011;5168;47.854;7.944;2022-08-30T05:13:52;4.27;;;3.50;;
10246;SDS011;5168;47.854;7.944;2022-08-30T05:16:17;3.70;;;3.40;;
10246;SDS011;5168;47.854;7.944;2022-08-30T05:18:44;3.90;;;3.53;;
10246;SDS011;5168;47.854;7.944;2022-08-30T05:21:17;4.23;;;3.80;;
10246;SDS011;5168;47.854;7.944;2022-08-30T05:23:44;4.67;;;3.80;;
10246;SDS011;5168;47.854;7.944;2022-08-30T05:26:12;7.07;;;3.83;;
10246;SDS011;5168;47.854;7.944;2022-08-30T05:28:40;4.07;;;3.67;;
10246;SDS011;5168;47.854;7.944;2022-08-30T05:31:13;4.07;;;3.47;;
10246;SDS011;5168;47.854;7.944;2022-08-30T05:33:47;3.80;;;3.50;;
10246;SDS011;5168;47.854;7.944;2022-08-30T05:36:15;3.77;;;2.87;;
10246;SDS011;5168;47.854;7.944;2022-08-30T05:38:42;3.30;;;3.00;;
10246;SDS011;5168;47.854;7.944;2022-08-30T05:41:08;3.60;;;3.30;;
10246;SDS011;5168;47.854;7.944;2022-08-30T05:43:34;3.47;;;3.17;;
10246;SDS011;5168;47.854;7.944;2022-08-30T05:46:01;4.17;;;3.53;;
10246;SDS011;5168;47.854;7.944;2022-08-30T05:48:29;3.40;;;3.10;;
10246;SDS011;5168;47.854;7.944;2022-08-30T05:51:05;3.77;;;3.47;;
10246;SDS011;5168;47.854;7.944;2022-08-30T05:53:35;4.07;;;3.73;;
10246;SDS011;5168;47.854;7.944;2022-08-30T05:56:02;4.50;;;3.27;;
10246;SDS011;5168;47.854;7.944;2022-08-30T05:58:29;3.70;;;3.30;;
10246;SDS011;5168;47.854;7.944;2022-08-30T06:00:55;3.50;;;3.20;;
10246;SDS011;5168;47.854;7.944;2022-08-30T06:03:21;3.60;;;3.20;;
10246;SDS011;5168;47.854;7.944;2022-08-30T06:05:47;4.40;;;3.67;;
10246;SDS011;5168;47.854;7.944;2022-08-30T06:08:12;3.20;;;2.97;;
10246;SDS011;5168;47.854;7.944;2022-08-30T06:10:38;3.27;;;3.00;;
10246;SDS011;5168;47.854;7.944;2022-08-30T06:13:04;3.80;;;3.50;;
10246;SDS011;5168;47.854;7.944;2022-08-30T06:15:30;3.40;;;3.10;;
10246;SDS011;5168;47.854;7.944;2022-08-30T06:17:56;3.40;;;3.10;;
10246;SDS011;5168;47.854;7.944;2022-08-30T06:20:21;3.53;;;3.23;;
10246;SDS011;5168;47.854;7.944;2022-08-30T06:22:47;3.60;;;3.30;;
10246;SDS011;5168;47.854;7.944;2022-08-30T06:25:13;3.40;;;3.10;;
10246;SDS011;5168;47.854;7.944;2022-08-30T06:27:40;3.63;;;3.33;;
10246;SDS011;5168;47.854;7.944;2022-08-30T06:30:07;4.10;;;3.60;;
10246;SDS011;5168;47.854;7.944;2022-08-30T06:32:34;3.63;;;3.33;;
10246;SDS011;5168;47.854;7.944;2022-08-30T06:35:01;3.47;;;3.17;;
10246;SDS011;5168;47.854;7.944;2022-08-30T06:37:27;4.07;;;3.77;;
10246;SDS011;5168;47.854;7.944;2022-08-30T06:39:52;4.00;;;3.60;;
10246;SDS011;5168;47.854;7.944;2022-08-30T06:42:18;4.10;;;3.70;;
10246;SDS011;5168;47.854;7.944;2022-08-30T06:44:44;4.00;;;3.60;;
10246;SDS011;5168;47.854;7.944;2022-08-30T06:47:10;3.57;;;3.27;;
10246;SDS011;5168;47.854;7.944;2022-08-30T06:49:36;4.00;;;3.40;;
10246;SDS011;5168;47.854;7.944;2022-08-30T06:52:02;3.70;;;3.40;;
10246;SDS011;5168;47.854;7.944;2022-08-30T06:54:28;4.03;;;3.67;;
10246;SDS011;5168;47.854;7.944;2022-08-30T06:56:54;5.27;;;3.50;;
10246;SDS011;5168;47.854;7.944;2022-08-30T06:59:19;4.07;;;3.30;;
10246;SDS011;5168;47.854;7.944;2022-08-30T07:01:45;5.22;;;3.58;;
10246;SDS011;5168;47.854;7.944;2022-08-30T07:04:11;4.15;;;3.70;;
10246;SDS011;5168;47.854;7.944;2022-08-30T07:06:37;3.50;;;3.20;;
10246;SDS011;5168;47.854;7.944;2022-08-30T07:09:03;3.80;;;3.50;;
10246;SDS011;5168;47.854;7.944;2022-08-30T07:11:34;3.53;;;3.23;;
10246;SDS011;5168;47.854;7.944;2022-08-30T07:14:01;3.60;;;3.30;;
10246;SDS011;5168;47.854;7.944;2022-08-30T07:16:28;3.75;;;3.45;;
10246;SDS011;5168;47.854;7.944;2022-08-30T07:18:55;4.60;;;2.67;;
10246;SDS011;5168;47.854;7.944;2022-08-30T07:21:26;3.53;;;3.20;;
10246;SDS011;5168;47.854;7.944;2022-08-30T07:23:56;4.00;;;3.45;;
10246;SDS011;5168;47.854;7.944;2022-08-30T07:26:34;4.88;;;3.28;;
10246;SDS011;5168;47.854;7.944;2022-08-30T07:29:02;3.75;;;3.33;;
10246;SDS011;5168;47.854;7.944;2022-08-30T07:31:28;5.38;;;3.33;;
10246;SDS011;5168;47.854;7.944;2022-08-30T07:33:54;4.78;;;3.28;;
10246;SDS011;5168;47.854;7.944;2022-08-30T07:36:19;3.97;;;3.50;;
10246;SDS011;5168;47.854;7.944;2022-08-30T07:38:46;4.10;;;3.22;;
10246;SDS011;5168;47.854;7.944;2022-08-30T07:41:21;3.38;;;3.08;;
10246;SDS011;5168;47.854;7.944;2022-08-30T07:43:52;4.90;;;2.88;;
10246;SDS011;5168;47.854;7.944;2022-08-30T07:46:18;4.15;;;3.00;;
10246;SDS011;5168;47.854;7.944;2022-08-30T07:48:44;3.50;;;3.20;;
10246;SDS011;5168;47.854;7.944;2022-08-30T07:51:11;5.32;;;2.97;;
10246;SDS011;5168;47.854;7.944;2022-08-30T07:53:38;3.55;;;3.25;;
10246;SDS011;5168;47.854;7.944;2022-08-30T07:56:04;3.33;;;3.03;;
10246;SDS011;5168;47.854;7.944;2022-08-30T07:58:30;3.55;;;3.25;;
10246;SDS011;5168;47.854;7.944;2022-08-30T08:00:56;3.75;;;2.88;;
10246;SDS011;5168;47.854;7.944;2022-08-30T08:03:23;2.75;;;2.55;;
10246;SDS011;5168;47.854;7.944;2022-08-30T08:05:50;5.15;;;2.80;;
10246;SDS011;5168;47.854;7.944;2022-08-30T08:08:17;3.70;;;3.20;;
10246;SDS011;5168;47.854;7.944;2022-08-30T08:10:43;3.97;;;2.90;;
10246;SDS011;5168;47.854;7.944;2022-08-30T08:13:09;2.90;;;2.70;;
10246;SDS011;5168;47.854;7.944;2022-08-30T08:15:35;3.50;;;2.97;;
10246;SDS011;5168;47.854;7.944;2022-08-30T08:18:01;4.10;;;3.30;;
10246;SDS011;5168;47.854;7.944;2022-08-30T08:20:27;3.40;;;3.10;;
10246;SDS011;5168;47.854;7.944;2022-08-30T08:22:53;7.15;;;3.47;;
10246;SDS011;5168;47.854;7.944;2022-08-30T08:25:18;3.95;;;2.88;;
10246;SDS011;5168;47.854;7.944;2022-08-30T08:27:47;4.65;;;3.03;;
10246;SDS011;5168;47.854;7.944;2022-08-30T08:30:15;3.75;;;2.80;;
10246;SDS011;5168;47.854;7.944;2022-08-30T08:32:41;4.03;;;3.60;;
10246;SDS011;5168;47.854;7.944;2022-08-30T08:35:07;3.88;;;3.00;;
10246;SDS011;5168;47.854;7.944;2022-08-30T08:37:35;3.13;;;2.80;;
10246;SDS011;5168;47.854;7.944;2022-08-30T08:40:01;5.32;;;3.55;;
10246;SDS011;5168;47.854;7.944;2022-08-30T08:45:22;4.43;;;3.15;;
10246;SDS011;5168;47.854;7.944;2022-08-30T08:48:13;3.95;;;3.13;;
10246;SDS011;5168;47.854;7.944;2022-08-30T08:50:52;3.45;;;3.00;;
10246;SDS011;5168;47.854;7.944;2022-08-30T08:53:37;3.75;;;3.38;;
10246;SDS011;5168;47.854;7.944;2022-08-30T08:56:05;3.58;;;3.28;;
10246;SDS011;5168;47.854;7.944;2022-08-30T08:58:47;4.60;;;3.28;;
10246;SDS011;5168;47.854;7.944;2022-08-30T09:01:17;4.05;;;3.40;;
10246;SDS011;5168;47.854;7.944;2022-08-30T09:03:44;3.30;;;2.92;;
10246;SDS011;5168;47.854;7.944;2022-08-30T09:09:06;3.60;;;3.08;;
10246;SDS011;5168;47.854;7.944;2022-08-30T09:11:33;3.50;;;3.20;;
10246;SDS011;5168;47.854;7.944;2022-08-30T09:14:01;4.05;;;3.33;;
10246;SDS011;5168;47.854;7.944;2022-08-30T09:16:45;4.07;;;3.20;;
10246;SDS011;5168;47.854;7.944;2022-08-30T09:21:56;3.55;;;3.25;;
10246;SDS011;5168;47.854;7.944;2022-08-30T09:24:23;3.38;;;3.08;;
10246;SDS011;5168;47.854;7.944;2022-08-30T09:26:49;4.82;;;3.50;;
10246;SDS011;5168;47.854;7.944;2022-08-30T09:29:16;3.60;;;3.30;;
10246;SDS011;5168;47.854;7.944;2022-08-30T09:31:50;3.72;;;3.42;;
10246;SDS011;5168;47.854;7.944;2022-08-30T09:34:19;4.55;;;3.20;;
10246;SDS011;5168;47.854;7.944;2022-08-30T09:36:49;3.50;;;3.20;;
10246;SDS011;5168;47.854;7.944;2022-08-30T09:39:25;3.97;;;3.22;;
10246;SDS011;5168;47.854;7.944;2022-08-30T09:44:49;4.38;;;3.20;;
10246;SDS011;5168;47.854;7.944;2022-08-30T09:47:22;3.42;;;3.13;;
10246;SDS011;5168;47.854;7.944;2022-08-30T09:50:01;3.75;;;3.22;;
10246;SDS011;5168;47.854;7.944;2022-08-30T09:52:44;3.63;;;3.33;;
10246;SDS011;5168;47.854;7.944;2022-08-30T09:55:53;4.60;;;3.50;;
10246;SDS011;5168;47.854;7.944;2022-08-30T09:58:34;3.72;;;3.33;;
10246;SDS011;5168;47.854;7.944;2022-08-30T10:01:14;4.65;;;3.50;;
10246;SDS011;5168;47.854;7.944;2022-08-30T10:12:37;5.28;;;3.15;;
10246;SDS011;5168;47.854;7.944;2022-08-30T10:15:32;3.67;;;3.35;;
10246;SDS011;5168;47.854;7.944;2022-08-30T10:20:52;3.63;;;3.10;;
10246;SDS011;5168;47.854;7.944;2022-08-30T10:23:44;3.60;;;3.30;;
10246;SDS011;5168;47.854;7.944;2022-08-30T10:28:50;3.42;;;3.13;;
10246;SDS011;5168;47.854;7.944;2022-08-30T10:31:32;3.47;;;3.15;;
10246;SDS011;5168;47.854;7.944;2022-08-30T10:34:07;6.95;;;2.95;;
10246;SDS011;5168;47.854;7.944;2022-08-30T10:36:46;4.25;;;3.53;;
10246;SDS011;5168;47.854;7.944;2022-08-30T10:39:20;3.47;;;3.05;;
10246;SDS011;5168;47.854;7.944;2022-08-30T10:41:49;3.63;;;2.95;;
10246;SDS011;5168;47.854;7.944;2022-08-30T10:44:43;3.38;;;3.08;;
10246;SDS011;5168;47.854;7.944;2022-08-30T10:47:18;3.33;;;3.03;;
10246;SDS011;5168;47.854;7.944;2022-08-30T10:49:51;3.72;;;3.33;;
10246;SDS011;5168;47.854;7.944;2022-08-30T10:52:35;3.35;;;3.00;;
10246;SDS011;5168;47.854;7.944;2022-08-30T10:55:22;3.97;;;3.03;;
10246;SDS011;5168;47.854;7.944;2022-08-30T10:57:49;3.00;;;2.80;;
10246;SDS011;5168;47.854;7.944;2022-08-30T11:00:25;4.10;;;2.95;;
10246;SDS011;5168;47.854;7.944;2022-08-30T11:10:45;3.13;;;2.90;;
10246;SDS011;5168;47.854;7.944;2022-08-30T11:13:25;4.53;;;3.50;;
10246;SDS011;5168;47.854;7.944;2022-08-30T11:15:55;3.72;;;3.40;;
10246;SDS011;5168;47.854;7.944;2022-08-30T11:18:25;3.25;;;2.95;;
10246;SDS011;5168;47.854;7.944;2022-08-30T11:20:55;3.53;;;3.13;;
10246;SDS011;5168;47.854;7.944;2022-08-30T11:23:56;4.03;;;3.20;;
10246;SDS011;5168;47.854;7.944;2022-08-30T11:40:08;3.90;;;2.90;;
10246;SDS011;5168;47.854;7.944;2022-08-30T11:42:53;3.25;;;2.95;;
10246;SDS011;5168;47.854;7.944;2022-08-30T11:47:52;4.90;;;3.65;;
10246;SDS011;5168;47.854;7.944;2022-08-30T11:50:24;4.50;;;3.25;;
10246;SDS011;5168;47.854;7.944;2022-08-30T11:58:15;3.40;;;3.10;;
10246;SDS011;5168;47.854;7.944;2022-08-30T12:01:18;3.65;;;3.35;;
10246;SDS011;5168;47.854;7.944;2022-08-30T12:03:52;3.72;;;3.30;;
10246;SDS011;5168;47.854;7.944;2022-08-30T12:07:06;3.92;;;3.58;;
10246;SDS011;5168;47.854;7.944;2022-08-30T12:14:34;4.03;;;2.97;;
10246;SDS011;5168;47.854;7.944;2022-08-30T12:17:01;3.70;;;3.30;;
10246;SDS011;5168;47.854;7.944;2022-08-30T12:19:53;3.80;;;3.47;;
10246;SDS011;5168;47.854;7.944;2022-08-30T12:22:21;3.67;;;3.13;;
10246;SDS011;5168;47.854;7.944;2022-08-30T12:24:47;4.18;;;3.42;;
10246;SDS011;5168;47.854;7.944;2022-08-30T12:27:29;3.50;;;3.20;;
10246;SDS011;5168;47.854;7.944;2022-08-30T12:30:00;3.80;;;3.20;;
10246;SDS011;5168;47.854;7.944;2022-08-30T12:32:30;3.95;;;3.10;;
10246;SDS011;5168;47.854;7.944;2022-08-30T12:35:00;3.40;;;3.10;;
10246;SDS011;5168;47.854;7.944;2022-08-30T12:40:03;3.90;;;3.58;;
10246;SDS011;5168;47.854;7.944;2022-08-30T12:42:29;3.95;;;3.53;;
10246;SDS011;5168;47.854;7.944;2022-08-30T12:45:01;4.68;;;3.80;;
10246;SDS011;5168;47.854;7.944;2022-08-30T12:47:37;4.20;;;3.70;;
10246;SDS011;5168;47.854;7.944;2022-08-30T12:50:05;3.67;;;3.38;;
10246;SDS011;5168;47.854;7.944;2022-08-30T12:52:36;4.20;;;3.80;;
10246;SDS011;5168;47.854;7.944;2022-08-30T12:55:08;4.05;;;3.65;;
10246;SDS011;5168;47.854;7.944;2022-08-30T12:58:09;3.92;;;3.63;;
10246;SDS011;5168;47.854;7.944;2022-08-30T13:00:46;5.43;;;3.40;;
10246;SDS011;5168;47.854;7.944;2022-08-30T13:06:00;4.80;;;3.78;;
10246;SDS011;5168;47.854;7.944;2022-08-30T13:08:31;4.20;;;3.80;;
10246;SDS011;5168;47.854;7.944;2022-08-30T13:11:10;5.10;;;4.00;;
10246;SDS011;5168;47.854;7.944;2022-08-30T13:13:54;5.20;;;3.97;;
10246;SDS011;5168;47.854;7.944;2022-08-30T13:16:25;4.45;;;4.05;;
10246;SDS011;5168;47.854;7.944;2022-08-30T13:21:59;4.85;;;3.78;;
10246;SDS011;5168;47.854;7.944;2022-08-30T13:24:26;4.45;;;4.05;;
10246;SDS011;5168;47.854;7.944;2022-08-30T13:26:57;4.57;;;4.18;;
10246;SDS011;5168;47.854;7.944;2022-08-30T13:29:27;4.70;;;3.50;;
10246;SDS011;5168;47.854;7.944;2022-08-30T13:31:53;4.65;;;3.95;;
10246;SDS011;5168;47.854;7.944;2022-08-30T13:34:20;4.03;;;3.63;;
10246;SDS011;5168;47.854;7.944;2022-08-30T13:36:56;4.57;;;4.15;;
10246;SDS011;5168;47.854;7.944;2022-08-30T13:39:22;4.28;;;3.88;;
10246;SDS011;5168;47.854;7.944;2022-08-30T13:41:50;4.07;;;3.67;;
10246;SDS011;5168;47.854;7.944;2022-08-30T13:44:16;4.38;;;3.97;;
10246;SDS011;5168;47.854;7.944;2022-08-30T13:46:43;8.60;;;3.78;;
10246;SDS011;5168;47.854;7.944;2022-08-30T13:49:21;4.47;;;3.70;;
10246;SDS011;5168;47.854;7.944;2022-08-30T13:51:48;3.75;;;3.42;;
10246;SDS011;5168;47.854;7.944;2022-08-30T13:54:17;4.10;;;3.70;;
10246;SDS011;5168;47.854;7.944;2022-08-30T13:56:45;5.78;;;3.55;;
10246;SDS011;5168;47.854;7.944;2022-08-30T13:59:17;4.57;;;3.60;;
10246;SDS011;5168;47.854;7.944;2022-08-30T14:01:43;3.90;;;3.38;;
10246;SDS011;5168;47.854;7.944;2022-08-30T14:04:09;4.20;;;3.80;;
10246;SDS011;5168;47.854;7.944;2022-08-30T14:06:35;5.55;;;3.80;;
10246;SDS011;5168;47.854;7.944;2022-08-30T14:09:01;4.32;;;3.67;;
10246;SDS011;5168;47.854;7.944;2022-08-30T14:11:28;3.53;;;3.22;;
10246;SDS011;5168;47.854;7.944;2022-08-30T14:13:54;4.03;;;3.63;;
10246;SDS011;5168;47.854;7.944;2022-08-30T14:16:20;3.80;;;3.40;;
10246;SDS011;5168;47.854;7.944;2022-08-30T14:18:46;4.78;;;3.85;;
10246;SDS011;5168;47.854;7.944;2022-08-30T14:21:12;5.95;;;3.90;;
10246;SDS011;5168;47.854;7.944;2022-08-30T14:23:38;4.07;;;3.70;;
10246;SDS011;5168;47.854;7.944;2022-08-30T14:26:05;4.85;;;3.50;;
10246;SDS011;5168;47.854;7.944;2022-08-30T14:28:37;4.00;;;3.60;;
10246;SDS011;5168;47.854;7.944;2022-08-30T14:31:03;3.97;;;3.60;;
10246;SDS011;5168;47.854;7.944;2022-08-30T14:33:28;3.70;;;3.40;;
10246;SDS011;5168;47.854;7.944;2022-08-30T14:35:54;4.80;;;3.60;;
10246;SDS011;5168;47.854;7.944;2022-08-30T14:38:20;3.50;;;3.15;;
10246;SDS011;5168;47.854;7.944;2022-08-30T14:40:46;4.22;;;3.78;;
10246;SDS011;5168;47.854;7.944;2022-08-30T14:43:11;3.55;;;3.25;;
10246;SDS011;5168;47.854;7.944;2022-08-30T14:45:37;3.85;;;3.47;;
10246;SDS011;5168;47.854;7.944;2022-08-30T14:48:03;3.90;;;3.53;;
10246;SDS011;5168;47.854;7.944;2022-08-30T14:50:33;4.60;;;3.67;;
10246;SDS011;5168;47.854;7.944;2022-08-30T14:52:59;5.60;;;3.72;;
10246;SDS011;5168;47.854;7.944;2022-08-30T14:55:25;5.07;;;3.50;;
10246;SDS011;5168;47.854;7.944;2022-08-30T14:57:52;3.90;;;3.42;;
10246;SDS011;5168;47.854;7.944;2022-08-30T15:00:18;4.30;;;3.75;;
10246;SDS011;5168;47.854;7.944;2022-08-30T15:02:44;6.18;;;4.30;;
10246;SDS011;5168;47.854;7.944;2022-08-30T15:05:10;4.35;;;3.88;;
10246;SDS011;5168;47.854;7.944;2022-08-30T15:07:36;4.50;;;3.95;;
10246;SDS011;5168;47.854;7.944;2022-08-30T15:10:03;6.13;;;3.55;;
10246;SDS011;5168;47.854;7.944;2022-08-30T15:12:30;4.38;;;3.97;;
10246;SDS011;5168;47.854;7.944;2022-08-30T15:14:56;5.18;;;3.60;;
10246;SDS011;5168;47.854;7.944;2022-08-30T15:17:22;4.00;;;3.70;;
10246;SDS011;5168;47.854;7.944;2022-08-30T15:19:48;4.32;;;3.60;;
10246;SDS011;5168;47.854;7.944;2022-08-30T15:22:13;8.55;;;7.65;;
10246;SDS011;5168;47.854;7.944;2022-08-30T15:24:39;7.43;;;5.93;;
10246;SDS011;5168;47.854;7.944;2022-08-30T15:27:05;6.00;;;4.57;;
10246;SDS011;5168;47.854;7.944;2022-08-30T15:29:31;5.18;;;4.10;;
10246;SDS011;5168;47.854;7.944;2022-08-30T15:31:58;5.00;;;3.78;;
10246;SDS011;5168;47.854;7.944;2022-08-30T15:34:24;4.93;;;4.20;;
10246;SDS011;5168;47.854;7.944;2022-08-30T15:36:50;4.72;;;3.75;;
10246;SDS011;5168;47.854;7.944;2022-08-30T15:39:16;7.15;;;4.20;;
10246;SDS011;5168;47.854;7.944;2022-08-30T15:41:42;4.20;;;3.67;;
10246;SDS011;5168;47.854;7.944;2022-08-30T15:44:09;5.63;;;4.07;;
10246;SDS011;5168;47.854;7.944;2022-08-30T15:46:37;4.63;;;3.88;;
10246;SDS011;5168;47.854;7.944;2022-08-30T15:49:09;4.90;;;4.43;;
10246;SDS011;5168;47.854;7.944;2022-08-30T15:51:37;4.13;;;3.72;;
10246;SDS011;5168;47.854;7.944;2022-08-30T15:54:04;5.25;;;3.75;;
10246;SDS011;5168;47.854;7.944;2022-08-30T15:56:30;6.53;;;4.35;;
10246;SDS011;5168;47.854;7.944;2022-08-30T15:58:57;5.00;;;4.18;;
10246;SDS011;5168;47.854;7.944;2022-08-30T16:01:22;5.15;;;4.15;;
10246;SDS011;5168;47.854;7.944;2022-08-30T16:03:48;4.50;;;4.10;;
10246;SDS011;5168;47.854;7.944;2022-08-30T16:06:14;4.30;;;3.90;;
10246;SDS011;5168;47.854;7.944;2022-08-30T16:08:43;4.15;;;3.75;;
10246;SDS011;5168;47.854;7.944;2022-08-30T16:11:09;4.00;;;3.60;;
10246;SDS011;5168;47.854;7.944;2022-08-30T16:13:37;4.35;;;3.30;;
10246;SDS011;5168;47.854;7.944;2022-08-30T16:16:04;4.70;;;4.15;;
10246;SDS011;5168;47.854;7.944;2022-08-30T16:18:31;4.60;;;4.00;;